Haysville, KS

3:26 PM CDT on March 29, 2017 (GMT -0500)
Suncrest | | Change Station

Elev 1259 ft 37.54 °N, 97.37 °W | Updated 11 seconds ago

Overcast
Overcast
60.2 °F
Feels Like 60.2 °F
N
4.0
Wind Variable Wind from WSW

Today
High -- | Low -- °F
--% Chance of Precip.
Yesterday
High -- | Low -- °F
Precip. -- in
Pressure 29.59 in
Visibility 10.0 miles
Clouds Scattered Clouds 1900 ft
Mostly Cloudy 2500 ft
Mostly Cloudy 3000 ft
Dew Point 51 °F
Humidity 73%
Rainfall 1.05 in
Snow Depth Not available.
7:18 AM 7:49 PM
Waxing Crescent, 4% visible
METAR KIAB 291958Z AUTO 19016G22KT 10SM SCT019 BKN025 BKN030 15/12 A2959 RMK AO2 CIG 017V025 CIG 017 RWY01 SLP020
Pressure 29.59 in
Visibility 10.0 miles
Clouds Scattered Clouds 1900 ft
Mostly Cloudy 2500 ft
Mostly Cloudy 3000 ft
Dew Point 51 °F
Humidity 73%
Rainfall 1.05 in
Snow Depth Not available.
7:18 AM 7:49 PM
Waxing Crescent, 4% visible
METAR KIAB 291958Z AUTO 19016G22KT 10SM SCT019 BKN025 BKN030 15/12 A2959 RMK AO2 CIG 017V025 CIG 017 RWY01 SLP020

Get Severe Weather Alerts

Thanks for signing up!

Be on the lookout for a verification email in your inbox.

You'll start receiving the daily forecast at 8 AM.

×

10-Day Weather Forecast

Almanac

Astronomy

Mar. 29, 2017 Rise Set
Actual Time
Civil Twilight
Nautical Twilight
Astronomical Twilight
Moon
Length of Visible Light
Length of Day
Tomorrow will be .
, % of the Moon is Illuminated

Today's Extremes

State Highs State Lows

Community

WunderPhotos

Upload Photos

1,962,540 photos uploaded!

WunderBlog® & News

Nearby

Air Quality

  Air Quality AQ Index Pollutant
Not available.

Snow Depth

Station Depth Elevation

Earthquake Activity

City Distance Mag. Time & Date
Minimum magnitude displayed is 2.5.

Earthquake Activity

City Distance Mag. Time & Date
Minimum magnitude displayed is 2.5.

Coastal Water Temperatures

Place Temperature

Stations

Nearby Weather Stations

Station Location Temp. Windchill Dew Point Humidity Wind Precip. Elev Updated Type
                   

Watches & Warnings

There are currently no watches in effect.